Time;durP1;ratioP1;P1;durP2;ratioP2;P2;SDS_P1;SDS_P2;PMS_P1;PMS_P2;Temp;Humidity;BMP_temperature;BMP_pressure;BME280_temperature;BME280_humidity;BME280_pressure;Samples;Min_cycle;Max_cycle;Signal;HPM_P1;HPM_P2
2021/12/16 00:08:38;;;;;;;29.45;12.23;;;8.20;99.90;;;;;;5039776;28;20100;-69
2021/12/16 00:35:37;;;;;;;29.05;12.00;;;8.20;99.90;;;;;;5057442;28;20521;-68
2021/12/16 00:38:03;;;;;;;21.48;12.00;;;8.20;99.90;;;;;;5037635;28;20139;-70
2021/12/16 00:40:29;;;;;;;27.38;11.88;;;8.20;99.90;;;;;;5037602;28;20053;-68
2021/12/16 00:43:00;;;;;;;31.05;13.15;;;8.30;99.90;;;;;;5036968;28;20064;-68
2021/12/16 00:48:02;;;;;;;32.83;12.93;;;8.20;99.90;;;;;;5036996;28;20123;-69
2021/12/16 00:55:47;;;;;;;29.35;12.48;;;8.20;99.90;;;;;;5037039;28;20134;-68
2021/12/16 00:58:16;;;;;;;26.35;12.95;;;8.20;99.90;;;;;;5037019;28;20064;-68
2021/12/16 01:00:50;;;;;;;29.05;13.55;;;8.20;99.90;;;;;;5036622;28;20056;-69
2021/12/16 01:03:28;;;;;;;31.55;13.10;;;8.20;99.90;;;;;;5036551;28;20081;-68
2021/12/16 01:08:52;;;;;;;26.20;13.27;;;8.20;99.90;;;;;;5036563;28;20413;-68
2021/12/16 01:33:46;;;;;;;29.88;12.63;;;8.80;99.90;;;;;;5043474;28;20060;-68
2021/12/16 01:37:13;;;;;;;29.40;12.77;;;8.30;99.90;;;;;;5038504;28;20049;-68
2021/12/16 01:42:10;;;;;;;24.52;12.75;;;8.30;99.90;;;;;;5056239;28;20118;-69
2021/12/16 01:57:26;;;;;;;26.90;13.32;;;8.30;99.90;;;;;;5038361;28;20057;-68
2021/12/16 02:00:06;;;;;;;27.67;13.73;;;8.30;99.90;;;;;;5055582;28;20049;-69
2021/12/16 02:02:50;;;;;;;34.42;13.82;;;8.30;99.90;;;;;;5038131;28;20048;-67
2021/12/16 02:08:17;;;;;;;31.48;13.63;;;8.30;99.90;;;;;;5055183;28;19921;-66
2021/12/16 02:10:42;;;;;;;31.83;13.98;;;8.40;99.90;;;;;;5054520;28;20057;-68
2021/12/16 02:30:32;;;;;;;30.20;12.98;;;8.30;99.90;;;;;;5037347;28;20335;-68
2021/12/16 02:32:53;;;;;;;27.85;13.13;;;8.30;99.90;;;;;;5037333;28;20057;-68
2021/12/16 02:35:30;;;;;;;23.05;12.15;;;8.30;99.90;;;;;;5037173;28;20072;-68
2021/12/16 02:38:00;;;;;;;28.90;13.70;;;8.30;99.90;;;;;;5053531;28;20033;-67
2021/12/16 02:40:26;;;;;;;26.98;12.48;;;8.30;99.90;;;;;;5054786;28;20053;-67
2021/12/16 02:43:06;;;;;;;30.65;13.20;;;8.40;99.90;;;;;;5037646;28;20059;-68
2021/12/16 02:48:37;;;;;;;26.08;13.20;;;8.60;99.90;;;;;;5054685;28;20064;-67
2021/12/16 02:51:24;;;;;;;30.50;13.65;;;8.40;99.90;;;;;;5054673;28;20156;-67
2021/12/16 02:53:54;;;;;;;26.25;12.23;;;8.40;99.90;;;;;;5037603;28;20051;-69
2021/12/16 02:56:19;;;;;;;30.75;13.23;;;8.40;99.90;;;;;;5054648;28;20132;-67
2021/12/16 02:58:50;;;;;;;31.13;13.38;;;8.40;99.90;;;;;;5055047;28;20132;-67
2021/12/16 03:01:30;;;;;;;27.15;12.80;;;8.40;99.90;;;;;;5037078;28;20045;-67
2021/12/16 03:03:57;;;;;;;32.05;14.52;;;8.40;99.90;;;;;;5054540;28;20442;-68
2021/12/16 03:06:23;;;;;;;20.13;11.88;;;8.40;99.90;;;;;;5037065;28;20063;-67
2021/12/16 03:08:50;;;;;;;21.42;13.35;;;8.40;99.90;;;;;;5036608;28;20473;-69
2021/12/16 03:11:25;;;;;;;31.15;13.85;;;8.40;99.90;;;;;;5037091;28;20124;-67
2021/12/16 03:14:22;;;;;;;28.02;14.13;;;8.30;99.90;;;;;;5054452;28;20055;-69
2021/12/16 03:17:12;;;;;;;19.30;12.95;;;8.30;99.90;;;;;;5036535;28;20110;-67
2021/12/16 03:22:05;;;;;;;29.98;13.75;;;8.60;99.90;;;;;;5036636;28;20153;-69
2021/12/16 03:37:39;;;;;;;31.48;15.35;;;8.20;99.90;;;;;;5040330;28;20465;-67
2021/12/16 03:40:08;;;;;;;26.08;14.02;;;8.20;99.90;;;;;;5056896;28;20102;-67
2021/12/16 03:42:43;;;;;;;25.52;13.95;;;8.10;99.90;;;;;;5074311;28;20057;-68
2021/12/16 03:48:26;;;;;;;26.02;14.23;;;8.00;99.90;;;;;;5056622;28;20530;-67
2021/12/16 03:50:51;;;;;;;27.02;14.07;;;7.90;99.90;;;;;;5076971;28;20044;-67
2021/12/16 03:53:18;;;;;;;31.13;15.70;;;7.90;99.90;;;;;;5078448;28;20053;-68
2021/12/16 03:55:45;;;;;;;25.20;14.48;;;7.80;99.90;;;;;;5077928;28;20480;-69
2021/12/16 03:58:14;;;;;;;31.52;15.90;;;7.80;99.90;;;;;;5078026;28;20097;-67
2021/12/16 04:00:46;;;;;;;34.05;16.35;;;7.80;99.90;;;;;;5060383;28;20052;-67
2021/12/16 04:03:12;;;;;;;29.23;14.75;;;7.70;99.90;;;;;;5059938;28;20070;-68
2021/12/16 04:05:39;;;;;;;37.58;14.52;;;7.70;99.90;;;;;;5077638;28;20036;-67
2021/12/16 04:08:06;;;;;;;34.88;14.68;;;7.60;99.90;;;;;;5052063;28;20134;-68
2021/12/16 04:10:43;;;;;;;38.60;15.98;;;7.60;99.90;;;;;;5057491;28;20098;-67
2021/12/16 04:13:12;;;;;;;33.35;16.30;;;7.50;99.90;;;;;;5057768;28;20049;-68
2021/12/16 04:15:39;;;;;;;30.05;16.15;;;7.40;99.90;;;;;;5057249;28;20037;-68
2021/12/16 04:18:05;;;;;;;37.58;16.15;;;7.40;99.90;;;;;;5057759;28;20124;-68
2021/12/16 04:20:31;;;;;;;29.20;15.38;;;7.30;99.90;;;;;;5039958;28;20404;-68
2021/12/16 04:22:58;;;;;;;26.30;15.15;;;7.20;99.90;;;;;;5057289;28;20041;-67
2021/12/16 04:25:31;;;;;;;25.52;15.20;;;7.20;99.90;;;;;;5057509;28;20091;-67
2021/12/16 04:28:00;;;;;;;30.48;16.20;;;7.30;99.90;;;;;;5039715;28;20041;-68
2021/12/16 04:30:28;;;;;;;31.73;15.40;;;7.10;99.90;;;;;;5039923;28;20040;-69
2021/12/16 04:32:54;;;;;;;26.40;15.45;;;7.00;99.90;;;;;;5036385;28;20062;-67
2021/12/16 04:35:20;;;;;;;36.03;17.35;;;7.10;99.90;;;;;;5019805;28;20121;-68
2021/12/16 04:37:47;;;;;;;35.00;16.77;;;7.00;99.90;;;;;;5023650;28;20080;-69
2021/12/16 04:40:14;;;;;;;33.58;17.38;;;7.00;99.90;;;;;;5054451;28;20056;-68
2021/12/16 04:42:43;;;;;;;29.67;15.93;;;6.90;99.90;;;;;;5055211;28;20110;-68
2021/12/16 04:45:11;;;;;;;36.75;18.10;;;7.00;99.90;;;;;;5039899;28;20107;-68
2021/12/16 04:47:38;;;;;;;39.78;17.70;;;7.00;99.90;;;;;;5056830;28;20036;-68
2021/12/16 04:50:05;;;;;;;38.20;17.90;;;7.00;99.90;;;;;;5056876;28;20060;-68
2021/12/16 04:52:35;;;;;;;44.75;19.70;;;7.00;99.90;;;;;;5039501;28;20089;-68
2021/12/16 04:55:01;;;;;;;44.15;21.35;;;7.00;99.90;;;;;;5039535;28;20064;-67
2021/12/16 04:57:26;;;;;;;34.42;18.30;;;7.00;99.90;;;;;;5038979;28;20049;-67
2021/12/16 04:59:52;;;;;;;35.85;18.60;;;7.00;99.90;;;;;;5056678;28;20076;-68
2021/12/16 05:02:21;;;;;;;39.55;18.98;;;7.00;99.90;;;;;;5038094;28;20463;-67
2021/12/16 05:04:47;;;;;;;44.25;19.45;;;7.00;99.90;;;;;;5039083;28;20053;-67
2021/12/16 05:07:15;;;;;;;39.60;19.70;;;7.00;99.90;;;;;;5056129;28;20062;-67
2021/12/16 05:12:12;;;;;;;36.08;18.38;;;7.00;99.90;;;;;;5025649;28;20049;-68
2021/12/16 05:14:39;;;;;;;32.67;17.85;;;6.90;99.90;;;;;;5051855;28;20045;-66
2021/12/16 05:17:21;;;;;;;36.80;18.80;;;6.90;99.90;;;;;;5056070;28;20037;-67
2021/12/16 05:19:50;;;;;;;34.03;18.23;;;6.90;99.90;;;;;;5018718;28;20473;-68
2021/12/16 05:25:00;;;;;;;41.78;19.63;;;6.90;99.90;;;;;;5036179;28;20084;-66
2021/12/16 05:27:26;;;;;;;39.53;19.00;;;6.90;99.90;;;;;;5018807;28;20096;-68
2021/12/16 05:29:52;;;;;;;36.03;18.35;;;7.00;99.90;;;;;;5022758;28;20041;-68
2021/12/16 05:32:17;;;;;;;35.30;20.20;;;7.00;99.90;;;;;;5055048;28;20053;-68
2021/12/16 05:34:43;;;;;;;42.15;20.58;;;7.00;99.90;;;;;;5054626;28;20057;-68
2021/12/16 05:37:09;;;;;;;45.75;20.45;;;7.10;99.90;;;;;;5035482;28;20046;-67
2021/12/16 05:39:35;;;;;;;42.95;20.48;;;7.10;99.90;;;;;;5035632;28;20049;-67
2021/12/16 05:42:00;;;;;;;44.55;21.27;;;7.20;99.90;;;;;;5036174;28;20049;-68
2021/12/16 05:44:26;;;;;;;44.05;21.23;;;7.20;99.90;;;;;;5018526;28;20052;-67
2021/12/16 05:46:54;;;;;;;40.00;19.85;;;7.20;99.90;;;;;;5018337;28;20049;-69
2021/12/16 05:49:20;;;;;;;39.90;20.98;;;7.20;99.90;;;;;;5035823;28;20410;-68
2021/12/16 05:51:48;;;;;;;39.45;21.17;;;7.30;99.90;;;;;;5018320;28;20139;-67
2021/12/16 05:54:15;;;;;;;45.55;21.75;;;7.20;99.90;;;;;;5018547;28;20057;-68
2021/12/16 05:56:41;;;;;;;35.30;19.38;;;7.30;99.90;;;;;;5035578;28;20045;-68
2021/12/16 05:59:11;;;;;;;43.28;20.90;;;7.30;99.90;;;;;;5035814;28;20046;-68
2021/12/16 06:01:39;;;;;;;37.70;20.67;;;7.30;99.90;;;;;;5002263;28;20053;-66
2021/12/16 06:04:05;;;;;;;45.63;20.33;;;7.40;99.90;;;;;;5020856;28;20041;-69
2021/12/16 06:06:30;;;;;;;37.28;20.90;;;7.40;99.90;;;;;;5038726;28;20130;-67
2021/12/16 06:08:57;;;;;;;36.40;20.33;;;7.30;99.90;;;;;;5055360;28;20051;-68
2021/12/16 06:11:28;;;;;;;37.75;19.75;;;7.30;99.90;;;;;;5055343;28;20430;-68
2021/12/16 06:14:14;;;;;;;44.40;19.80;;;7.30;99.90;;;;;;5049354;28;20415;-66
2021/12/16 06:22:47;;;;;;;35.95;19.58;;;7.30;99.90;;;;;;5044686;28;20131;-68
2021/12/16 06:28:07;;;;;;;36.42;19.23;;;7.20;99.90;;;;;;5036694;28;20083;-68
2021/12/16 06:30:37;;;;;;;34.38;18.42;;;7.10;99.90;;;;;;5037141;28;20061;-69
2021/12/16 06:33:09;;;;;;;33.53;19.40;;;7.10;99.90;;;;;;5050648;28;20048;-67
2021/12/16 06:35:36;;;;;;;38.17;19.20;;;7.00;99.90;;;;;;5078381;28;20053;-68
2021/12/16 06:38:03;;;;;;;32.15;18.15;;;7.00;99.90;;;;;;5056848;28;20051;-68
2021/12/16 06:40:29;;;;;;;38.53;19.05;;;6.90;99.90;;;;;;5072971;28;20048;-67
2021/12/16 06:42:57;;;;;;;34.38;18.05;;;6.90;99.90;;;;;;5084226;28;20086;-68
2021/12/16 06:45:27;;;;;;;44.95;19.80;;;6.90;99.90;;;;;;5064916;28;20033;-69
2021/12/16 06:48:05;;;;;;;49.15;20.10;;;6.90;99.90;;;;;;5069019;28;20082;-69
2021/12/16 06:53:22;;;;;;;41.15;20.48;;;6.80;99.90;;;;;;5074115;28;20048;-69
2021/12/16 06:56:01;;;;;;;;;;;6.70;99.90;;;;;;5074725;28;20416;-68
2021/12/16 06:58:34;;;;;;;33.47;18.40;;;6.70;99.90;;;;;;5073449;28;19930;-69
2021/12/16 07:01:13;;;;;;;30.10;17.52;;;6.70;99.90;;;;;;5073675;28;20102;-67
2021/12/16 07:03:47;;;;;;;34.05;18.25;;;6.60;99.90;;;;;;5056428;28;20071;-69
2021/12/16 07:06:18;;;;;;;36.47;19.25;;;6.50;99.90;;;;;;5073847;28;20484;-67
2021/12/16 07:08:45;;;;;;;41.30;19.58;;;6.50;99.90;;;;;;5073734;28;20049;-67
2021/12/16 07:11:11;;;;;;;36.45;19.02;;;6.50;99.90;;;;;;5073941;28;20044;-67
2021/12/16 07:13:41;;;;;;;36.65;19.58;;;6.40;99.90;;;;;;5039723;28;20045;-67
2021/12/16 07:16:09;;;;;;;33.63;18.20;;;6.40;99.90;;;;;;5056416;28;20048;-67
2021/12/16 07:18:34;;;;;;;41.03;20.38;;;6.40;99.90;;;;;;5049815;28;20048;-69
2021/12/16 07:21:01;;;;;;;47.97;21.60;;;6.30;99.90;;;;;;5042747;28;20041;-66
2021/12/16 07:23:27;;;;;;;37.05;21.27;;;6.30;99.90;;;;;;5036360;28;20041;-67
2021/12/16 07:25:54;;;;;;;50.92;22.65;;;6.30;99.90;;;;;;5056975;28;20458;-68
2021/12/16 07:28:19;;;;;;;59.58;23.85;;;6.30;99.90;;;;;;5058001;28;20060;-67
2021/12/16 07:30:46;;;;;;;37.85;20.02;;;6.30;99.90;;;;;;5069865;28;20041;-68
2021/12/16 07:33:13;;;;;;;37.08;19.38;;;6.30;99.90;;;;;;5079980;28;20063;-68
2021/12/16 07:35:40;;;;;;;47.72;20.23;;;6.20;99.90;;;;;;5071190;28;20052;-68
2021/12/16 07:38:06;;;;;;;40.97;20.52;;;6.20;99.90;;;;;;5039755;28;20454;-67
2021/12/16 07:40:32;;;;;;;43.75;21.08;;;6.20;99.90;;;;;;5039624;28;20045;-67
2021/12/16 07:43:18;;;;;;;40.17;20.42;;;6.20;99.90;;;;;;5057422;28;20045;-69
2021/12/16 07:45:46;;;;;;;41.50;20.75;;;6.10;99.90;;;;;;5066542;28;20032;-68
2021/12/16 07:48:14;;;;;;;43.65;20.95;;;6.10;99.90;;;;;;5097995;28;20084;-67
2021/12/16 07:50:42;;;;;;;49.30;22.70;;;6.10;99.90;;;;;;5097360;28;20108;-69
2021/12/16 07:53:08;;;;;;;42.10;21.88;;;6.10;99.90;;;;;;5097749;28;20118;-68
2021/12/16 07:55:34;;;;;;;43.05;22.17;;;6.10;99.90;;;;;;5064585;28;20436;-69
2021/12/16 07:58:00;;;;;;;50.38;21.88;;;6.10;99.90;;;;;;5066919;28;20065;-68
2021/12/16 08:00:31;;;;;;;42.88;21.90;;;6.10;99.90;;;;;;5062409;28;20076;-69
2021/12/16 08:02:57;;;;;;;38.13;20.38;;;6.10;99.90;;;;;;5097830;28;20427;-68
2021/12/16 08:05:25;;;;;;;42.83;20.67;;;6.10;99.90;;;;;;5080368;28;20056;-68
2021/12/16 08:07:51;;;;;;;46.28;22.13;;;6.10;99.90;;;;;;5097502;28;20416;-66
2021/12/16 08:10:20;;;;;;;45.72;22.27;;;6.10;99.90;;;;;;5097031;28;20052;-66
2021/12/16 08:12:46;;;;;;;49.67;22.75;;;6.20;99.90;;;;;;5079703;28;20049;-70
2021/12/16 08:15:15;;;;;;;53.42;23.83;;;6.30;99.90;;;;;;5059844;28;20040;-70
2021/12/16 08:17:42;;;;;;;40.70;21.55;;;6.30;99.90;;;;;;5058114;28;20041;-68
2021/12/16 08:20:08;;;;;;;41.53;22.08;;;6.30;99.90;;;;;;5049255;28;20040;-69
2021/12/16 08:22:33;;;;;;;55.28;23.92;;;6.40;99.90;;;;;;5069428;28;20056;-68
2021/12/16 08:24:59;;;;;;;46.85;23.45;;;6.40;99.90;;;;;;5056704;28;20052;-70
2021/12/16 08:27:25;;;;;;;52.08;25.45;;;6.50;99.90;;;;;;5059846;28;20373;-69
2021/12/16 08:29:51;;;;;;;52.15;25.50;;;6.50;99.90;;;;;;5076564;28;20055;-68
2021/12/16 08:32:16;;;;;;;73.97;27.27;;;6.60;99.90;;;;;;5059397;28;20052;-68
2021/12/16 08:34:45;;;;;;;68.38;28.60;;;6.60;99.90;;;;;;5058393;28;20114;-69
2021/12/16 08:37:14;;;;;;;58.35;26.13;;;6.70;99.90;;;;;;5051389;28;20053;-67
2021/12/16 08:39:40;;;;;;;67.07;27.95;;;6.80;99.90;;;;;;5056370;28;20127;-68
2021/12/16 08:42:09;;;;;;;56.35;26.85;;;6.90;99.90;;;;;;5056999;28;20123;-69
2021/12/16 08:44:35;;;;;;;68.75;29.35;;;6.90;99.90;;;;;;5029169;28;20129;-69
2021/12/16 08:47:10;;;;;;;64.55;28.00;;;7.00;99.90;;;;;;5049573;28;20090;-68
2021/12/16 08:49:36;;;;;;;63.17;29.00;;;7.10;99.90;;;;;;5031321;28;20049;-68
2021/12/16 08:52:06;;;;;;;64.72;28.35;;;7.20;99.90;;;;;;5049084;28;20440;-69
2021/12/16 08:54:32;;;;;;;72.35;30.48;;;7.20;99.90;;;;;;5028933;28;20106;-67
2021/12/16 08:56:58;;;;;;;79.25;32.15;;;7.30;99.90;;;;;;5047278;28;20045;-69
2021/12/16 08:59:25;;;;;;;80.88;31.92;;;7.30;99.90;;;;;;5046766;28;20423;-69
2021/12/16 09:01:53;;;;;;;66.97;28.73;;;7.30;99.90;;;;;;5028553;28;20334;-67
2021/12/16 09:04:23;;;;;;;80.03;30.95;;;7.40;99.90;;;;;;5015772;28;20417;-67
2021/12/16 09:06:50;;;;;;;68.90;29.27;;;7.40;99.90;;;;;;5028194;28;20045;-68
2021/12/16 09:09:16;;;;;;;74.85;31.00;;;7.40;99.90;;;;;;5028019;28;20102;-68
2021/12/16 09:11:59;;;;;;;65.88;30.23;;;7.50;99.90;;;;;;5029212;28;20119;-68
2021/12/16 09:14:25;;;;;;;85.25;31.95;;;7.40;99.90;;;;;;5047033;28;20125;-68
2021/12/16 09:16:50;;;;;;;70.07;28.33;;;7.50;99.90;;;;;;5028237;28;20120;-69
2021/12/16 09:19:16;;;;;;;84.45;30.77;;;7.50;99.90;;;;;;5071080;28;20131;-70
2021/12/16 09:21:42;;;;;;;86.20;31.70;;;7.50;99.90;;;;;;5045826;28;20068;-69
2021/12/16 09:24:08;;;;;;;84.90;31.55;;;7.50;99.90;;;;;;5038818;28;20049;-68
2021/12/16 09:26:34;;;;;;;61.78;27.58;;;7.70;99.90;;;;;;5056004;28;20053;-68
2021/12/16 09:29:01;;;;;;;75.13;29.55;;;7.60;99.90;;;;;;5037235;28;20138;-70
2021/12/16 09:31:28;;;;;;;68.93;30.33;;;7.60;99.90;;;;;;5055256;28;20064;-69
2021/12/16 09:33:55;;;;;;;105.03;32.83;;;7.60;99.90;;;;;;5049490;28;20056;-68
2021/12/16 09:36:26;;;;;;;68.30;29.67;;;7.60;99.90;;;;;;5058063;28;20068;-67
2021/12/16 09:38:53;;;;;;;61.10;28.15;;;7.80;99.90;;;;;;5057621;28;20072;-70
2021/12/16 09:41:19;;;;;;;123.88;33.67;;;7.80;99.90;;;;;;5075573;28;20041;-69
2021/12/16 09:43:49;;;;;;;88.45;30.88;;;7.80;99.90;;;;;;5075497;28;20044;-69
2021/12/16 09:46:19;;;;;;;120.35;32.75;;;7.90;99.90;;;;;;5041112;28;20072;-67
2021/12/16 09:48:45;;;;;;;92.72;32.65;;;8.00;99.90;;;;;;5075045;28;20125;-69
2021/12/16 09:51:21;;;;;;;74.43;29.80;;;8.00;99.90;;;;;;5058160;28;20123;-69
2021/12/16 09:53:48;;;;;;;173.45;35.28;;;8.10;99.90;;;;;;5075382;28;20520;-68
2021/12/16 09:56:14;;;;;;;99.75;30.27;;;8.10;99.90;;;;;;5074977;28;20109;-69
2021/12/16 09:58:43;;;;;;;145.35;31.60;;;8.10;99.90;;;;;;5075356;28;20052;-68
2021/12/16 10:01:10;;;;;;;108.57;26.33;;;8.10;99.90;;;;;;5075478;28;20102;-68
2021/12/16 10:03:39;;;;;;;209.13;34.72;;;8.10;99.90;;;;;;5075493;28;20098;-67
2021/12/16 10:06:04;;;;;;;56.47;26.00;;;8.10;99.90;;;;;;5056862;28;20036;-68
2021/12/16 10:08:30;;;;;;;85.72;26.55;;;8.10;99.90;;;;;;5057222;28;20083;-66
2021/12/16 10:10:58;;;;;;;124.05;27.40;;;8.10;99.90;;;;;;5057206;28;20048;-69
2021/12/16 10:13:36;;;;;;;242.02;33.63;;;8.10;99.90;;;;;;5074928;28;20369;-67
2021/12/16 10:18:29;;;;;;;164.43;27.48;;;8.20;99.90;;;;;;5056961;28;20060;-68
2021/12/16 10:20:58;;;;;;;139.80;28.40;;;8.20;99.90;;;;;;5056125;28;20444;-68
2021/12/16 10:23:31;;;;;;;176.98;28.83;;;8.30;99.90;;;;;;5038004;28;20126;-67
2021/12/16 10:26:01;;;;;;;130.40;27.88;;;8.30;99.90;;;;;;5054986;28;20075;-68
2021/12/16 10:28:45;;;;;;;117.05;25.95;;;8.40;99.90;;;;;;5037497;28;20343;-67
2021/12/16 10:31:21;;;;;;;61.20;25.13;;;8.40;99.90;;;;;;5073511;28;20044;-68
2021/12/16 10:33:57;;;;;;;100.07;25.35;;;8.60;99.90;;;;;;5055990;28;20139;-69
2021/12/16 10:36:36;;;;;;;137.95;25.48;;;8.50;99.90;;;;;;5037140;28;20056;-68
2021/12/16 10:39:09;;;;;;;368.98;34.33;;;8.60;99.90;;;;;;5043108;28;20117;-66
2021/12/16 10:41:47;;;;;;;101.55;23.50;;;8.60;99.90;;;;;;5056657;28;20052;-70
2021/12/16 10:44:21;;;;;;;163.38;24.88;;;8.60;99.90;;;;;;5074356;28;20522;-69
2021/12/16 10:46:54;;;;;;;176.68;26.85;;;8.60;99.90;;;;;;5056919;28;20136;-68
2021/12/16 10:49:25;;;;;;;88.70;23.00;;;8.70;99.90;;;;;;5074428;28;20396;-69
2021/12/16 10:51:54;;;;;;;123.40;25.30;;;8.70;99.90;;;;;;5057073;28;20106;-68
2021/12/16 10:54:22;;;;;;;66.43;22.80;;;8.70;99.90;;;;;;5074554;28;20109;-68
2021/12/16 10:56:53;;;;;;;121.90;25.40;;;8.70;99.90;;;;;;5056978;28;20472;-69
2021/12/16 10:59:30;;;;;;;85.78;22.90;;;8.70;99.90;;;;;;5057718;28;20067;-69
2021/12/16 11:02:01;;;;;;;85.05;25.20;;;8.70;99.90;;;;;;5061097;28;20051;-69
2021/12/16 11:04:41;;;;;;;57.95;24.35;;;8.80;99.90;;;;;;5060514;28;20064;-68
2021/12/16 11:07:19;;;;;;;118.55;24.98;;;8.80;99.90;;;;;;5053502;28;20461;-68
2021/12/16 11:09:47;;;;;;;85.75;22.90;;;8.80;99.90;;;;;;5059683;28;20098;-69
2021/12/16 11:12:24;;;;;;;120.88;25.25;;;8.80;99.90;;;;;;5078564;28;20036;-69
2021/12/16 11:15:00;;;;;;;160.65;24.63;;;8.90;99.90;;;;;;5060764;28;20126;-68
2021/12/16 11:17:32;;;;;;;78.95;22.10;;;8.90;99.90;;;;;;5061056;28;20084;-68
2021/12/16 11:20:03;;;;;;;118.32;22.63;;;8.90;99.90;;;;;;5078376;28;20063;-68
2021/12/16 11:22:33;;;;;;;63.22;21.25;;;8.90;99.90;;;;;;5060284;28;20071;-69
2021/12/16 11:25:13;;;;;;;202.50;26.27;;;8.90;99.90;;;;;;5060274;28;20072;-69
2021/12/16 11:27:39;;;;;;;79.07;20.58;;;8.90;99.90;;;;;;5077782;28;20055;-68
2021/12/16 11:30:27;;;;;;;48.70;19.85;;;9.00;99.90;;;;;;5078137;28;20433;-69
2021/12/16 11:32:54;;;;;;;63.83;20.58;;;9.00;99.90;;;;;;5057535;28;20441;-69
2021/12/16 11:35:28;;;;;;;52.78;21.25;;;8.90;99.90;;;;;;5057587;28;20041;-69
2021/12/16 11:37:55;;;;;;;87.80;20.77;;;9.00;99.90;;;;;;5047043;28;20045;-67
2021/12/16 11:40:20;;;;;;;57.00;20.15;;;9.00;99.90;;;;;;5004993;28;20049;-67
2021/12/16 11:43:04;;;;;;;71.88;20.40;;;9.00;99.90;;;;;;5021054;28;20127;-69
2021/12/16 11:45:35;;;;;;;55.67;20.63;;;9.10;99.90;;;;;;5020667;28;20528;-69
2021/12/16 11:48:04;;;;;;;46.20;22.55;;;9.10;99.90;;;;;;5020771;28;20060;-69
2021/12/16 11:50:40;;;;;;;54.97;23.05;;;9.10;99.90;;;;;;5038116;28;20314;-69
2021/12/16 11:53:06;;;;;;;;;;;9.10;99.90;;;;;;5038376;28;20111;-70
2021/12/16 11:55:35;;;;;;;53.40;23.08;;;9.10;99.90;;;;;;5038310;28;19921;-69
2021/12/16 11:58:03;;;;;;;49.95;24.40;;;9.10;99.90;;;;;;5020781;28;20045;-70
2021/12/16 12:00:37;;;;;;;54.53;25.00;;;9.20;99.90;;;;;;5020637;28;20077;-68
2021/12/16 12:03:13;;;;;;;62.90;24.40;;;9.20;99.90;;;;;;5019949;28;20060;-69
2021/12/16 12:05:48;;;;;;;70.13;23.80;;;9.20;99.90;;;;;;5029024;28;20095;-67
2021/12/16 12:08:30;;;;;;;40.58;22.30;;;9.20;99.90;;;;;;5040288;28;20114;-67
2021/12/16 12:11:02;;;;;;;44.90;23.05;;;9.20;99.90;;;;;;5057305;28;20053;-69
2021/12/16 12:13:40;;;;;;;73.80;23.02;;;9.20;99.90;;;;;;5039958;28;20059;-69
2021/12/16 12:16:33;;;;;;;45.28;22.15;;;9.30;99.90;;;;;;5040582;28;20076;-67
2021/12/16 12:19:09;;;;;;;72.43;23.95;;;9.20;99.90;;;;;;5040069;28;20144;-68
2021/12/16 12:21:40;;;;;;;46.53;23.77;;;9.20;99.90;;;;;;5057386;28;20045;-68
2021/12/16 12:24:14;;;;;;;56.65;24.20;;;9.20;99.90;;;;;;5039866;28;20056;-70
2021/12/16 12:26:59;;;;;;;49.22;23.55;;;9.20;99.90;;;;;;5037628;28;20045;-67
2021/12/16 12:29:35;;;;;;;55.13;23.63;;;9.20;99.90;;;;;;5039141;28;20049;-69
2021/12/16 12:32:06;;;;;;;52.15;24.67;;;9.20;99.90;;;;;;5057207;28;20136;-69
2021/12/16 12:34:34;;;;;;;65.97;23.17;;;9.20;99.90;;;;;;5039396;28;20045;-67
2021/12/16 12:37:03;;;;;;;59.50;23.23;;;9.20;99.90;;;;;;5056996;28;20063;-68
2021/12/16 12:39:38;;;;;;;40.17;21.98;;;9.20;99.90;;;;;;5023286;28;20048;-67
2021/12/16 12:42:04;;;;;;;48.45;23.30;;;9.20;99.90;;;;;;5037729;28;20049;-69
2021/12/16 12:44:30;;;;;;;49.95;24.35;;;9.30;99.90;;;;;;5056987;28;20111;-68
2021/12/16 12:47:00;;;;;;;71.47;24.98;;;9.30;99.90;;;;;;5038559;28;20045;-69
2021/12/16 12:49:29;;;;;;;59.63;24.95;;;9.30;99.90;;;;;;5056998;28;20049;-68
2021/12/16 12:52:09;;;;;;;50.53;23.10;;;9.30;99.90;;;;;;5039528;28;20057;-67
2021/12/16 12:54:36;;;;;;;52.00;23.30;;;9.20;99.90;;;;;;5039498;28;20059;-67
2021/12/16 12:57:23;;;;;;;54.53;23.63;;;9.20;99.90;;;;;;5056770;28;20118;-68
2021/12/16 12:59:49;;;;;;;48.25;23.98;;;9.20;99.90;;;;;;5022893;28;20057;-69
2021/12/16 13:02:19;;;;;;;49.38;22.48;;;9.30;99.90;;;;;;5039359;28;20060;-67
2021/12/16 13:04:54;;;;;;;48.15;22.15;;;9.30;99.90;;;;;;5056650;28;20071;-69
2021/12/16 13:07:32;;;;;;;49.85;22.30;;;9.30;99.90;;;;;;5039443;28;20053;-67
2021/12/16 13:10:05;;;;;;;49.13;22.63;;;9.30;99.90;;;;;;5053817;28;20060;-69
2021/12/16 13:12:40;;;;;;;46.58;19.60;;;9.30;99.90;;;;;;5055340;28;20053;-67
2021/12/16 13:29:38;;;;;;;39.30;17.02;;;9.30;99.90;;;;;;5035054;28;20049;-69
2021/12/16 13:32:15;;;;;;;;;;;9.30;99.90;;;;;;5018600;28;20041;-67
2021/12/16 13:34:50;;;;;;;46.03;17.10;;;9.30;99.90;;;;;;5035862;28;20345;-67
2021/12/16 13:37:33;;;;;;;35.95;15.93;;;9.30;99.90;;;;;;5035426;28;20045;-69
2021/12/16 13:40:22;;;;;;;48.03;18.30;;;9.30;99.90;;;;;;5018025;28;20051;-68
2021/12/16 13:42:55;;;;;;;56.00;19.67;;;9.40;99.90;;;;;;5020900;28;20049;-67
2021/12/16 13:45:32;;;;;;;39.92;16.38;;;9.40;99.90;;;;;;5038052;28;20041;-68
2021/12/16 13:48:10;;;;;;;51.85;15.75;;;9.40;99.90;;;;;;5037878;28;20099;-68
2021/12/16 14:07:59;;;;;;;32.60;13.27;;;9.30;99.90;;;;;;5074349;28;20052;-69
2021/12/16 14:10:44;;;;;;;40.47;14.27;;;9.30;99.90;;;;;;5069495;28;20099;-66
2021/12/16 14:34:28;;;;;;;38.95;14.98;;;9.30;99.90;;;;;;5036176;28;20049;-68
2021/12/16 14:39:09;;;;;;;45.80;14.50;;;9.30;99.90;;;;;;5036259;28;20066;-69
2021/12/16 14:45:10;;;;;;;44.40;15.18;;;9.30;99.90;;;;;;5036734;28;20068;-68
2021/12/16 14:49:43;;;;;;;36.28;14.52;;;9.30;99.90;;;;;;5036582;28;20068;-68
2021/12/16 14:52:24;;;;;;;35.95;15.32;;;9.20;99.90;;;;;;5016898;28;20115;-67
2021/12/16 14:54:58;;;;;;;43.22;15.48;;;9.20;99.90;;;;;;5033719;28;20041;-70
2021/12/16 14:57:36;;;;;;;38.38;15.32;;;9.20;99.90;;;;;;5034223;28;20096;-68
2021/12/16 15:00:39;;;;;;;45.63;16.27;;;9.20;99.90;;;;;;5034023;28;20129;-68
2021/12/16 15:03:14;;;;;;;34.45;15.52;;;9.10;99.90;;;;;;5001471;28;20072;-68
2021/12/16 15:05:47;;;;;;;50.85;16.05;;;9.10;99.90;;;;;;5033886;28;20056;-70
2021/12/16 15:08:39;;;;;;;;;;;9.10;99.90;;;;;;5037093;28;21555;-68
2021/12/16 15:11:09;;;;;;;39.88;16.17;;;9.10;99.90;;;;;;5049508;28;19975;-69
2021/12/16 15:13:48;;;;;;;32.72;14.43;;;9.10;99.90;;;;;;5053607;28;20044;-70
2021/12/16 15:36:36;;;;;;;49.22;18.17;;;8.80;99.90;;;;;;5053725;28;20045;-69
2021/12/16 15:44:13;;;;;;;44.38;17.38;;;8.80;99.90;;;;;;5054032;28;20072;-69
2021/12/16 15:46:40;;;;;;;52.92;18.20;;;8.80;99.90;;;;;;5057417;28;20037;-70
2021/12/16 15:49:07;;;;;;;47.88;18.00;;;8.80;99.90;;;;;;5042722;28;20049;-68
2021/12/16 15:51:33;;;;;;;55.05;18.77;;;8.70;99.90;;;;;;5037579;28;20111;-69
2021/12/16 15:54:01;;;;;;;50.05;18.67;;;8.70;99.90;;;;;;5020387;28;20057;-69
2021/12/16 15:56:34;;;;;;;36.65;17.10;;;8.80;99.90;;;;;;5020163;28;20120;-68
2021/12/16 15:59:10;;;;;;;37.42;17.52;;;8.70;99.90;;;;;;5025987;28;20091;-69
2021/12/16 16:01:39;;;;;;;39.20;14.98;;;8.70;99.90;;;;;;5036913;28;20103;-69
2021/12/16 16:04:13;;;;;;;44.78;15.75;;;8.70;99.90;;;;;;5039185;28;20045;-68
2021/12/16 16:06:49;;;;;;;43.67;16.70;;;8.70;99.90;;;;;;5037137;28;20050;-68
2021/12/16 16:09:15;;;;;;;40.63;18.55;;;8.70;99.90;;;;;;5046690;28;20175;-67
2021/12/16 16:11:50;;;;;;;42.88;20.80;;;8.70;99.90;;;;;;5057474;28;20103;-69
2021/12/16 16:14:17;;;;;;;44.15;19.77;;;8.70;99.90;;;;;;5038472;28;20488;-66
2021/12/16 16:16:49;;;;;;;50.28;17.73;;;8.70;99.90;;;;;;5038998;28;20123;-69
2021/12/16 16:19:22;;;;;;;46.60;19.83;;;8.70;99.90;;;;;;5055617;28;20044;-68
2021/12/16 16:21:50;;;;;;;46.28;18.48;;;8.70;99.90;;;;;;5037903;28;20067;-69
2021/12/16 16:24:21;;;;;;;44.30;16.15;;;8.60;99.90;;;;;;5036721;28;20045;-68
2021/12/16 16:26:49;;;;;;;45.53;17.55;;;8.60;99.90;;;;;;5037120;28;20132;-68
2021/12/16 16:29:19;;;;;;;42.80;16.08;;;8.70;99.90;;;;;;5037301;28;20049;-68
2021/12/16 16:31:45;;;;;;;59.92;18.63;;;8.70;99.90;;;;;;5048972;28;20060;-69
2021/12/16 16:34:30;;;;;;;50.10;17.55;;;8.70;99.90;;;;;;5035836;28;20065;-68
2021/12/16 16:37:04;;;;;;;46.05;18.58;;;8.70;99.90;;;;;;5036161;28;20417;-68
2021/12/16 16:39:33;;;;;;;46.35;17.98;;;8.70;99.90;;;;;;5046327;28;20150;-68
2021/12/16 16:42:06;;;;;;;47.25;18.85;;;8.70;99.90;;;;;;5048357;28;20427;-67
2021/12/16 16:44:33;;;;;;;76.72;21.30;;;8.70;99.90;;;;;;5051410;28;20389;-68